CheckWX is a tool to help pilots better visualize weather data.  It is not intended as a substitute for an official pre-flight weather briefing.

05:16:36 UTC

KHON METAR
Huron Regional Airport
Huron, South Dakota, USA
Current

22 mins ago

KHON 240455Z AUTO 33017KT 10SM CLR M11/M14 A2992 RMK AO2 SLP155 T11061139
Observed
Feb-24 @ 04:55 UTC
Wind
  • 330° at 17 KTS
Visibility
10 SM
Flight Rules
VFR
Cloud Levels
  • Clear skies
Temperature
-11°C / 12°F
Dewpoint
-14°C / 7°F
Humidity
79%
Altimeter
29.92" Hg
Pressure
1015.5 hPa
Previous

1 hour ago

KHON 240355Z AUTO 33014KT 10SM CLR M11/M13 A2990 RMK AO2 SLP147 T11061133
Observed
Feb-24 @ 03:55 UTC
Wind
  • 330° at 14 KTS
Visibility
10 SM
Flight Rules
VFR
Cloud Levels
  • Clear skies
Temperature
-11°C / 12°F
Dewpoint
-13°C / 9°F
Humidity
85%
Altimeter
29.9" Hg
Pressure
1014.7 hPa
Previous

2 hours ago

KHON 240255Z AUTO 33014KT 10SM CLR M10/M13 A2987 RMK AO2 SLP137 T11001128 53007
Observed
Feb-24 @ 02:55 UTC
Wind
  • 330° at 14 KTS
Visibility
10 SM
Flight Rules
VFR
Cloud Levels
  • Clear skies
Temperature
-10°C / 14°F
Dewpoint
-13°C / 9°F
Humidity
79%
Altimeter
29.87" Hg
Pressure
1013.7 hPa